Time;durP1;ratioP1;P1;durP2;ratioP2;P2;SDS_P1;SDS_P2;PMS_P1;PMS_P2;Temp;Humidity;BMP_temperature;BMP_pressure;BME280_temperature;BME280_humidity;BME280_pressure;Samples;Min_cycle;Max_cycle;Signal;HPM_P1;HPM_P2
2021/05/20 00:00:46;;;;;;;2.05;0.52;;;;;;;7.83;87.14;99713.22;2025347;77;21112;-72
2021/05/20 00:03:49;;;;;;;1.15;0.30;;;;;;;7.78;87.01;99713.16;2026703;79;20622;-72
2021/05/20 00:06:52;;;;;;;0.30;0.30;;;;;;;7.72;87.06;99713.09;2027248;79;20778;-72
2021/05/20 00:09:55;;;;;;;0.40;0.40;;;;;;;7.67;87.11;99713.88;2026559;79;20387;-72
2021/05/20 00:12:57;;;;;;;0.63;0.63;;;;;;;7.59;87.07;99716.38;2027199;79;20357;-72
2021/05/20 00:16:00;;;;;;;1.76;0.40;;;;;;;7.51;87.03;99718.84;2025757;77;22476;-72
2021/05/20 00:19:03;;;;;;;6.25;0.52;;;;;;;7.53;87.16;99724.91;2026648;79;20354;-72
2021/05/20 00:22:06;;;;;;;0.73;0.44;;;;;;;7.58;87.54;99723.25;2026131;79;20433;-72
2021/05/20 00:25:09;;;;;;;1.96;0.50;;;;;;;7.64;88.02;99732.78;2027293;79;21284;-72
2021/05/20 00:28:11;;;;;;;0.46;0.46;;;;;;;7.66;88.32;99731.09;2026984;79;20330;-72
2021/05/20 00:31:14;;;;;;;2.46;0.49;;;;;;;7.70;88.94;99737.16;2023543;78;40980;-72
2021/05/20 00:34:17;;;;;;;0.40;0.40;;;;;;;7.76;89.28;99738.13;2021591;80;20397;-72
2021/05/20 00:37:19;;;;;;;1.59;0.50;;;;;;;7.81;89.45;99739.03;2021241;80;20323;-72
2021/05/20 00:40:22;;;;;;;1.91;0.46;;;;;;;7.84;89.62;99739.06;2021568;80;20373;-72
2021/05/20 00:43:25;;;;;;;0.59;0.50;;;;;;;7.87;89.95;99741.69;2021557;80;20336;-72
2021/05/20 00:46:28;;;;;;;1.73;0.50;;;;;;;7.95;90.22;99740.94;2023494;77;21466;-72
2021/05/20 00:49:30;;;;;;;0.60;0.60;;;;;;;8.01;90.33;99738.41;2026140;79;20834;-72
2021/05/20 00:52:34;;;;;;;0.46;0.46;;;;;;;8.04;90.10;99738.44;2025827;79;20343;-73
2021/05/20 00:55:37;;;;;;;1.01;0.50;;;;;;;8.05;89.98;99735.88;2026263;79;20751;-73
2021/05/20 00:58:44;;;;;;;1.05;0.61;;;;;;;8.08;89.75;99742.81;2026461;79;20339;-73
2021/05/20 01:01:46;;;;;;;1.13;0.52;;;;;;;8.07;89.60;99735.88;2022791;80;20313;-73
2021/05/20 01:04:49;;;;;;;5.05;0.60;;;;;;;8.05;89.54;99743.63;2021199;80;20381;-74
2021/05/20 01:07:53;;;;;;;0.86;0.50;;;;;;;8.05;89.59;99743.63;2020586;80;20319;-73
2021/05/20 01:10:58;;;;;;;0.98;0.60;;;;;;;8.00;89.28;99736.69;2020991;80;20780;-74
2021/05/20 01:14:01;;;;;;;1.76;0.85;;;;;;;7.98;89.15;99746.13;2021589;80;20174;-73
2021/05/20 01:17:04;;;;;;;2.21;0.60;;;;;;;7.97;88.99;99752.16;2023894;77;20867;-72
2021/05/20 01:20:07;;;;;;;1.40;0.50;;;;;;;7.97;89.00;99758.19;2025424;80;20353;-72
2021/05/20 01:23:11;;;;;;;1.27;0.50;;;;;;;7.99;88.96;99753.91;2027072;79;20327;-72
2021/05/20 01:26:14;;;;;;;0.50;0.50;;;;;;;7.96;89.18;99753.00;2026331;79;20380;-73
2021/05/20 01:29:17;;;;;;;1.54;0.50;;;;;;;7.99;89.39;99759.09;2026524;79;20362;-73
2021/05/20 01:32:20;;;;;;;1.00;0.60;;;;;;;8.00;89.52;99755.66;2021456;77;21745;-73
2021/05/20 01:35:23;;;;;;;0.94;0.47;;;;;;;8.03;89.33;99757.38;2020586;80;20779;-73
2021/05/20 01:41:37;;;;;;;0.44;0.44;;;;;;;8.01;89.08;99753.94;2020912;80;20381;-73
2021/05/20 01:44:40;;;;;;;0.50;0.50;;;;;;;8.01;89.31;99752.22;2021084;80;20811;-73
2021/05/20 01:47:42;;;;;;;2.75;0.50;;;;;;;8.02;89.17;99755.66;2025586;77;20477;-73
2021/05/20 01:50:45;;;;;;;1.29;0.60;;;;;;;8.01;89.08;99753.94;2027370;79;20350;-73
2021/05/20 01:53:56;;;;;;;1.01;0.59;;;;;;;7.96;89.08;99761.63;2026824;79;20355;-73
2021/05/20 01:56:58;;;;;;;1.79;0.50;;;;;;;7.94;88.88;99760.75;2026737;79;20315;-73
2021/05/20 02:00:02;;;;;;;5.29;0.70;;;;;;;7.91;88.85;99767.63;2027494;79;20804;-73
2021/05/20 02:03:05;;;;;;;0.96;0.50;;;;;;;7.84;88.58;99756.31;2023424;77;23039;-74
2021/05/20 02:06:09;;;;;;;0.60;0.50;;;;;;;7.80;88.57;99765.75;2022976;80;20473;-72
2021/05/20 02:09:11;;;;;;;0.55;0.40;;;;;;;7.74;88.63;99757.94;2022984;80;20417;-72
2021/05/20 02:12:14;;;;;;;0.57;0.40;;;;;;;7.69;88.78;99758.69;2023293;80;20369;-73
2021/05/20 02:15:16;;;;;;;0.55;0.50;;;;;;;7.67;88.88;99765.56;2023069;79;20312;-72
2021/05/20 02:18:20;;;;;;;2.19;0.60;;;;;;;7.64;88.80;99766.41;2028804;78;21478;-73
2021/05/20 02:21:22;;;;;;;0.41;0.41;;;;;;;7.63;88.76;99763.78;2028519;79;20374;-72
2021/05/20 02:24:25;;;;;;;0.70;0.70;;;;;;;7.64;88.73;99762.94;2029109;79;20364;-72
2021/05/20 02:27:28;;;;;;;1.17;0.60;;;;;;;7.68;88.80;99764.72;2028683;79;20311;-72
2021/05/20 02:30:31;;;;;;;0.60;0.59;;;;;;;7.72;88.96;99761.31;2026604;77;21663;-72
2021/05/20 02:33:34;;;;;;;0.65;0.65;;;;;;;7.73;89.07;99766.53;2023555;80;20345;-72
2021/05/20 02:36:37;;;;;;;0.76;0.76;;;;;;;7.74;89.40;99764.81;2023204;80;20373;-73
2021/05/20 02:39:39;;;;;;;0.65;0.65;;;;;;;7.73;89.68;99766.53;2023963;80;20316;-72
2021/05/20 02:42:42;;;;;;;0.60;0.60;;;;;;;7.77;90.01;99764.84;2023441;80;20367;-72
2021/05/20 02:45:45;;;;;;;0.70;0.70;;;;;;;7.79;90.36;99763.16;2023468;79;21560;-72
2021/05/20 02:48:50;;;;;;;1.66;0.75;;;;;;;7.85;90.40;99765.78;2028726;79;20433;-72
2021/05/20 02:51:53;;;;;;;3.46;0.66;;;;;;;7.92;90.26;99766.75;2028595;79;20776;-72
2021/05/20 02:54:57;;;;;;;1.10;0.69;;;;;;;7.94;90.16;99771.09;2028069;79;20635;-72
2021/05/20 02:58:02;;;;;;;1.20;0.61;;;;;;;7.96;90.26;99771.13;2028437;79;21186;-72
2021/05/20 03:01:04;;;;;;;1.25;0.59;;;;;;;8.01;90.23;99774.59;2026481;77;21198;-72
2021/05/20 03:04:07;;;;;;;2.45;0.70;;;;;;;8.05;90.08;99779.84;2028016;79;20398;-72
2021/05/20 03:07:11;;;;;;;1.99;0.66;;;;;;;8.08;90.27;99782.47;2027172;79;20174;-72
2021/05/20 03:10:14;;;;;;;1.14;0.52;;;;;;;8.11;90.41;99777.34;2026954;79;20314;-73
2021/05/20 03:13:17;;;;;;;2.53;0.60;;;;;;;8.13;90.54;99785.13;2026337;79;21087;-72
2021/05/20 03:16:19;;;;;;;0.65;0.60;;;;;;;8.19;90.66;99780.00;2023049;77;20684;-73
2021/05/20 03:19:22;;;;;;;1.92;0.80;;;;;;;8.22;90.71;99784.34;2022039;80;20803;-73
2021/05/20 03:22:25;;;;;;;0.70;0.70;;;;;;;8.25;90.71;99787.81;2021382;80;20175;-72
2021/05/20 03:25:28;;;;;;;1.94;0.73;;;;;;;8.29;90.69;99788.75;2022333;80;20977;-72
2021/05/20 03:28:31;;;;;;;1.13;1.13;;;;;;;8.31;90.67;99792.22;2021567;80;20319;-72
2021/05/20 03:31:33;;;;;;;0.74;0.74;;;;;;;8.34;90.68;99784.50;2023505;77;23480;-72
2021/05/20 03:34:36;;;;;;;2.25;0.59;;;;;;;8.36;90.72;99793.16;2027198;79;20707;-73
2021/05/20 03:37:39;;;;;;;0.80;0.80;;;;;;;8.39;90.66;99788.88;2026832;79;20360;-72
2021/05/20 03:40:41;;;;;;;0.66;0.66;;;;;;;8.43;90.64;99789.78;2027650;79;20212;-72
2021/05/20 03:43:44;;;;;;;1.36;0.70;;;;;;;8.45;90.63;99793.28;2027903;79;20182;-72
2021/05/20 03:47:02;;;;;;;1.14;0.80;;;;;;;8.46;90.53;99789.84;2026510;77;20213;-73
2021/05/20 03:50:05;;;;;;;0.79;0.79;;;;;;;8.48;90.40;99789.00;2027123;79;20973;-73
2021/05/20 03:53:08;;;;;;;0.77;0.77;;;;;;;8.48;90.27;99794.16;2026818;79;20210;-73
2021/05/20 03:56:11;;;;;;;2.04;1.00;;;;;;;8.46;90.28;99787.25;2030623;79;20329;-72
2021/05/20 03:59:13;;;;;;;0.96;0.96;;;;;;;8.49;90.38;99795.03;2027259;79;20187;-72
2021/05/20 04:02:16;;;;;;;0.80;0.80;;;;;;;8.49;90.38;99797.63;2022072;77;21728;-72
2021/05/20 04:05:19;;;;;;;0.84;0.84;;;;;;;8.50;90.44;99806.25;2021016;80;20228;-73
2021/05/20 04:08:21;;;;;;;1.29;0.73;;;;;;;8.55;90.47;99805.44;2021778;80;20324;-74
2021/05/20 04:11:25;;;;;;;0.80;0.80;;;;;;;8.59;90.38;99806.31;2020856;80;20854;-72
2021/05/20 04:14:28;;;;;;;0.98;0.85;;;;;;;8.61;90.33;99814.97;2021570;80;20878;-73
2021/05/20 04:17:31;;;;;;;1.00;0.95;;;;;;;8.63;90.49;99818.47;2025424;78;20563;-72
2021/05/20 04:20:33;;;;;;;1.84;0.93;;;;;;;8.65;90.67;99819.34;2026739;79;20174;-72
2021/05/20 04:23:43;;;;;;;2.69;0.84;;;;;;;8.69;90.77;99818.53;2026080;79;20192;-72
2021/05/20 04:26:45;;;;;;;1.59;0.90;;;;;;;8.72;90.75;99826.31;2026433;79;20497;-73
2021/05/20 04:29:48;;;;;;;1.15;1.05;;;;;;;8.70;90.80;99825.44;2027093;79;20202;-73
2021/05/20 04:32:50;;;;;;;1.35;1.25;;;;;;;8.71;91.11;99829.75;2020579;78;20543;-72
2021/05/20 04:35:53;;;;;;;2.16;1.00;;;;;;;8.74;91.16;99828.06;2020654;80;20233;-72
2021/05/20 04:38:55;;;;;;;1.48;1.04;;;;;;;8.79;91.09;99830.69;2021887;80;20822;-73
2021/05/20 04:41:58;;;;;;;1.54;0.90;;;;;;;8.82;90.96;99835.94;2021084;80;20256;-72
2021/05/20 04:45:01;;;;;;;1.04;1.00;;;;;;;8.86;90.88;99844.59;2022200;80;20187;-73
2021/05/20 04:48:05;;;;;;;2.38;1.16;;;;;;;8.86;91.01;99845.44;2026618;77;20460;-72
2021/05/20 04:51:07;;;;;;;2.36;1.13;;;;;;;8.91;91.08;99842.91;2026494;79;20352;-72
2021/05/20 04:54:10;;;;;;;2.22;1.09;;;;;;;8.94;90.85;99841.19;2027347;79;21221;-72
2021/05/20 04:57:13;;;;;;;1.08;1.05;;;;;;;8.95;91.08;99844.66;2026580;79;20190;-73
2021/05/20 05:00:16;;;;;;;1.25;1.17;;;;;;;9.03;91.14;99851.66;2026490;79;20356;-72
2021/05/20 05:03:23;;;;;;;2.11;1.05;;;;;;;9.08;90.91;99855.16;2026639;79;20745;-73
2021/05/20 05:06:26;;;;;;;1.30;1.21;;;;;;;9.13;90.98;99860.38;2026361;79;20178;-72
2021/05/20 05:09:29;;;;;;;1.55;1.34;;;;;;;9.19;91.02;99854.38;2026816;79;20162;-73
2021/05/20 05:12:31;;;;;;;3.19;1.46;;;;;;;9.26;91.12;99861.34;2026558;79;20280;-73
2021/05/20 05:15:34;;;;;;;1.79;1.60;;;;;;;9.30;91.39;99860.50;2024477;77;46899;-73
2021/05/20 05:18:38;;;;;;;1.65;1.55;;;;;;;9.38;91.45;99867.50;2021398;80;20611;-72
2021/05/20 05:21:40;;;;;;;1.85;1.44;;;;;;;9.45;91.39;99863.22;2021186;80;20186;-72
2021/05/20 05:24:43;;;;;;;2.59;1.64;;;;;;;9.52;91.27;99865.03;2021545;80;20301;-72
2021/05/20 05:27:46;;;;;;;1.84;1.74;;;;;;;9.60;91.06;99859.88;2021089;80;20196;-72
2021/05/20 05:30:50;;;;;;;1.95;1.85;;;;;;;9.67;90.69;99859.06;2019593;77;21970;-73
2021/05/20 05:33:53;;;;;;;3.13;1.98;;;;;;;9.76;90.17;99874.69;2020082;80;20234;-73
2021/05/20 05:36:56;;;;;;;2.20;1.95;;;;;;;9.85;89.90;99872.16;2019080;80;20264;-73
2021/05/20 05:39:59;;;;;;;2.15;2.05;;;;;;;9.94;89.45;99874.81;2019521;80;20171;-73
2021/05/20 05:43:02;;;;;;;2.03;1.80;;;;;;;10.04;88.94;99880.03;2019666;80;20175;-73
2021/05/20 05:46:04;;;;;;;2.53;1.99;;;;;;;10.29;88.26;99884.53;2018435;77;20175;-72
2021/05/20 05:49:19;;;;;;;1.74;1.64;;;;;;;10.79;86.23;99878.66;2020869;80;20636;-73
2021/05/20 05:52:23;;;;;;;1.64;1.44;;;;;;;11.04;84.57;99876.97;2020750;80;20560;-74
2021/05/20 05:55:26;;;;;;;2.22;1.88;;;;;;;10.94;84.23;99876.06;2024430;80;20175;-73
2021/05/20 05:58:28;;;;;;;1.70;1.60;;;;;;;10.89;83.58;99881.28;2021715;80;20175;-73
2021/05/20 06:01:32;;;;;;;1.70;1.46;;;;;;;10.86;83.45;99880.41;2022769;78;21020;-73
2021/05/20 06:04:34;;;;;;;2.26;1.76;;;;;;;10.84;83.31;99885.59;2026168;80;20284;-72
2021/05/20 06:07:37;;;;;;;2.00;1.73;;;;;;;11.44;81.91;99886.53;2025826;79;20613;-72
2021/05/20 06:10:40;;;;;;;1.63;1.52;;;;;;;11.48;81.69;99890.84;2026052;80;20178;-73
2021/05/20 06:13:43;;;;;;;2.51;1.49;;;;;;;11.56;81.22;99887.41;2026344;79;20202;-73
2021/05/20 06:16:45;;;;;;;1.48;1.38;;;;;;;11.52;81.08;99880.47;2025876;77;20776;-72
2021/05/20 06:19:48;;;;;;;3.19;1.30;;;;;;;12.35;79.39;99885.53;2026466;80;20336;-72
2021/05/20 06:22:51;;;;;;;1.14;1.04;;;;;;;13.10;75.16;99884.25;2025956;80;20192;-72
2021/05/20 06:25:53;;;;;;;3.01;1.30;;;;;;;13.48;74.73;99887.50;2026230;80;20179;-71
2021/05/20 06:28:56;;;;;;;5.70;0.99;;;;;;;13.18;74.46;99895.56;2025699;80;20237;-72
2021/05/20 06:31:59;;;;;;;1.50;1.40;;;;;;;12.92;73.62;99895.66;2022131;77;24716;-72
2021/05/20 06:35:06;;;;;;;2.99;1.33;;;;;;;12.76;74.25;99900.13;2022277;80;20761;-72
2021/05/20 06:38:08;;;;;;;2.89;1.20;;;;;;;12.56;74.87;99902.78;2021423;80;20193;-72
2021/05/20 06:41:11;;;;;;;2.05;1.10;;;;;;;12.51;75.12;99901.97;2021681;80;20244;-71
2021/05/20 06:44:14;;;;;;;2.09;1.20;;;;;;;12.65;74.32;99907.97;2021792;80;20197;-71
2021/05/20 06:47:16;;;;;;;1.25;1.14;;;;;;;13.27;73.53;99900.69;2024698;79;23907;-71
2021/05/20 06:50:19;;;;;;;2.28;1.10;;;;;;;13.71;71.82;99912.53;2027081;79;20204;-72
2021/05/20 06:53:24;;;;;;;2.26;1.20;;;;;;;13.83;69.94;99912.44;2027084;79;20192;-71
2021/05/20 06:56:29;;;;;;;2.72;1.55;;;;;;;13.73;69.30;99922.06;2026813;79;20163;-72
2021/05/20 07:02:54;;;;;;;2.89;1.20;;;;;;;13.44;68.99;99914.47;2020829;77;21918;-73
2021/05/20 07:05:56;;;;;;;1.73;1.05;;;;;;;13.24;70.15;99918.97;2021839;80;20174;-72
2021/05/20 07:08:59;;;;;;;1.67;1.05;;;;;;;13.22;70.94;99921.59;2022455;80;20186;-72
2021/05/20 07:12:03;;;;;;;1.36;1.26;;;;;;;13.34;70.45;99918.03;2022155;80;20193;-73
2021/05/20 07:15:06;;;;;;;1.16;1.06;;;;;;;13.34;69.17;99918.03;2021032;79;20176;-72
2021/05/20 07:18:09;;;;;;;3.88;1.50;;;;;;;13.30;68.18;99916.34;2024631;77;20247;-74
2021/05/20 07:21:11;;;;;;;1.54;1.13;;;;;;;13.40;68.57;99910.16;2026924;79;21068;-74
2021/05/20 07:24:15;;;;;;;1.40;1.06;;;;;;;13.50;68.74;99916.19;2026232;79;20221;-74
2021/05/20 07:27:17;;;;;;;1.06;0.96;;;;;;;13.88;69.41;99910.63;2027377;79;20502;-75
2021/05/20 07:30:20;;;;;;;1.27;1.15;;;;;;;14.13;67.68;99919.94;2026524;77;20615;-77
2021/05/20 07:33:24;;;;;;;1.23;1.13;;;;;;;14.19;67.33;99919.91;2027399;79;20204;-72
2021/05/20 07:36:26;;;;;;;1.49;1.39;;;;;;;14.20;65.82;99918.16;2027382;79;20202;-72
2021/05/20 07:39:29;;;;;;;1.60;1.50;;;;;;;14.59;64.12;99923.84;2027377;79;20182;-72
2021/05/20 07:42:31;;;;;;;2.33;1.44;;;;;;;14.63;63.13;99920.28;2027368;79;20187;-72
2021/05/20 07:45:34;;;;;;;3.22;1.10;;;;;;;14.58;62.66;99917.75;2026855;79;23909;-72
2021/05/20 07:48:38;;;;;;;1.95;1.35;;;;;;;14.56;63.37;99918.66;2027607;79;20536;-72
2021/05/20 07:51:40;;;;;;;4.28;3.97;;;;;;;14.62;63.61;99921.19;2027562;79;20687;-71
2021/05/20 07:54:43;;;;;;;1.77;1.23;;;;;;;14.47;64.25;99922.22;2027910;79;20174;-73
2021/05/20 07:57:46;;;;;;;1.85;0.88;;;;;;;14.32;64.75;99920.63;2025758;79;20254;-71
2021/05/20 08:00:49;;;;;;;2.91;1.40;;;;;;;14.28;65.76;99925.91;2024481;77;21171;-72
2021/05/20 08:03:56;;;;;;;3.94;1.30;;;;;;;14.51;66.74;99916.06;2018444;80;20626;-72
2021/05/20 08:10:43;;;;;;;2.41;1.07;;;;;;;15.86;62.91;99910.63;2021376;80;21007;-73
2021/05/20 08:13:46;;;;;;;2.78;1.98;;;;;;;16.50;60.46;99906.78;2021435;80;20211;-74
2021/05/20 08:16:55;;;;;;;3.89;0.81;;;;;;;17.10;56.21;99903.78;2021102;77;48414;-75
2021/05/20 08:19:57;;;;;;;1.54;0.80;;;;;;;17.61;54.61;99897.34;2021121;80;20175;-74
2021/05/20 08:23:10;;;;;;;1.98;0.89;;;;;;;17.47;53.77;99906.41;2021362;80;20875;-74
2021/05/20 08:26:13;;;;;;;3.42;1.09;;;;;;;16.86;53.98;99910.41;2021143;80;20175;-74
2021/05/20 08:29:23;;;;;;;1.24;1.10;;;;;;;16.19;55.86;99922.25;2021839;80;20666;-73
2021/05/20 08:32:32;;;;;;;1.69;1.23;;;;;;;15.71;56.70;99919.59;2025075;77;21368;-73
2021/05/20 08:35:48;;;;;;;1.38;1.27;;;;;;;15.26;56.95;99917.66;2027093;79;20208;-73
2021/05/20 08:38:50;;;;;;;5.14;2.78;;;;;;;14.84;58.50;99921.75;2026331;79;20186;-74
2021/05/20 08:42:00;;;;;;;0.90;0.90;;;;;;;14.50;59.80;99915.22;2026116;79;20236;-74
2021/05/20 08:45:18;;;;;;;1.56;0.90;;;;;;;14.23;61.28;99919.88;2025251;79;20248;-74
2021/05/20 08:48:27;;;;;;;0.89;0.89;;;;;;;14.24;59.56;99911.16;2020974;80;20171;-74
2021/05/20 08:51:36;;;;;;;2.24;1.00;;;;;;;14.96;61.74;99911.16;2020846;80;20668;-74
2021/05/20 08:54:45;;;;;;;3.99;1.08;;;;;;;15.55;58.85;99909.38;2021590;80;20224;-73
2021/05/20 08:57:56;;;;;;;1.35;1.10;;;;;;;15.29;56.76;99921.13;2020634;80;20202;-73
2021/05/20 09:01:05;;;;;;;1.20;1.10;;;;;;;15.13;59.11;99921.38;2022745;77;22407;-73
2021/05/20 09:04:09;;;;;;;1.61;1.25;;;;;;;14.92;59.20;99919.94;2025874;79;20182;-73
2021/05/20 09:07:22;;;;;;;1.04;0.94;;;;;;;14.69;60.43;99917.59;2026062;79;20163;-73
2021/05/20 09:10:32;;;;;;;1.65;1.01;;;;;;;14.61;60.73;99920.31;2025897;79;20510;-73
2021/05/20 09:13:42;;;;;;;1.20;1.08;;;;;;;15.04;61.03;99920.59;2026828;79;21154;-73
2021/05/20 09:16:45;;;;;;;2.05;1.05;;;;;;;15.52;56.60;99912.91;2022561;77;22759;-73
2021/05/20 09:19:55;;;;;;;;;;;;;;;15.66;57.73;99917.97;2020582;80;20223;-73
2021/05/20 09:23:12;;;;;;;3.31;1.15;;;;;;;15.74;58.74;99912.59;2020916;80;20051;-74
2021/05/20 09:26:35;;;;;;;1.21;1.00;;;;;;;16.15;57.30;99901.34;2020866;80;20710;-73
2021/05/20 09:29:39;;;;;;;0.70;0.70;;;;;;;16.64;56.30;99909.13;2020444;80;20183;-73
2021/05/20 09:32:52;;;;;;;1.63;0.65;;;;;;;16.87;54.77;99898.16;2020040;77;22124;-73
2021/05/20 09:36:03;;;;;;;1.55;0.73;;;;;;;16.86;52.29;99906.94;2019713;80;20226;-74
2021/05/20 09:39:14;;;;;;;1.11;0.60;;;;;;;16.59;51.40;99906.59;2021339;80;20203;-74
2021/05/20 09:42:24;;;;;;;1.08;0.43;;;;;;;16.25;53.38;99909.03;2020816;80;20378;-74
2021/05/20 09:45:28;;;;;;;1.24;0.40;;;;;;;16.01;53.16;99910.38;2020588;77;21248;-73
2021/05/20 09:48:39;;;;;;;1.15;0.79;;;;;;;15.78;53.10;99902.03;2025988;80;20174;-74
2021/05/20 09:51:42;;;;;;;1.00;1.00;;;;;;;15.57;54.31;99903.22;2026304;79;20204;-74
2021/05/20 09:54:51;;;;;;;1.20;1.10;;;;;;;15.35;55.44;99894.84;2025172;80;20304;-74
2021/05/20 09:58:06;;;;;;;;;;;;;;;15.26;56.74;99900.25;2025719;80;20174;-73
2021/05/20 10:01:18;;;;;;;1.00;1.00;;;;;;;15.07;55.90;99899.63;2022826;78;24247;-73
2021/05/20 10:04:30;;;;;;;3.45;1.38;;;;;;;15.62;56.33;99898.84;2020295;80;20207;-73
2021/05/20 10:07:42;;;;;;;2.35;1.11;;;;;;;16.63;55.04;99894.28;2020710;80;20325;-73
2021/05/20 10:11:04;;;;;;;2.71;1.10;;;;;;;17.62;50.74;99892.03;2022688;80;20175;-73
2021/05/20 10:14:14;;;;;;;3.53;1.30;;;;;;;18.30;50.88;99886.75;2022404;80;20522;-74
2021/05/20 10:17:25;;;;;;;3.47;1.61;;;;;;;18.35;50.42;99889.25;2021319;77;20201;-75
2021/05/20 10:20:35;;;;;;;2.61;1.10;;;;;;;18.15;48.57;99881.94;2021847;80;20198;-74
2021/05/20 10:23:44;;;;;;;1.19;1.00;;;;;;;17.76;48.20;99884.69;2021425;80;20187;-74
2021/05/20 10:26:47;;;;;;;1.55;1.14;;;;;;;17.36;50.50;99890.03;2021477;80;20195;-74
2021/05/20 10:29:59;;;;;;;1.45;1.10;;;;;;;16.96;51.51;99879.63;2021883;80;20832;-74
2021/05/20 10:33:15;;;;;;;1.89;1.10;;;;;;;16.70;51.71;99879.34;2020937;77;25522;-75
2021/05/20 10:36:26;;;;;;;1.96;1.17;;;;;;;16.46;52.02;99883.28;2020310;80;20630;-74
2021/05/20 10:39:47;;;;;;;3.32;1.00;;;;;;;16.39;52.86;99877.31;2024371;80;20199;-74
2021/05/20 10:43:09;;;;;;;1.79;1.19;;;;;;;16.51;53.85;99881.41;2022018;80;20623;-73
2021/05/20 10:46:19;;;;;;;2.40;1.59;;;;;;;16.58;52.30;99877.81;2020651;77;23030;-73
2021/05/20 10:49:58;;;;;;;3.15;1.65;;;;;;;16.80;52.57;99881.72;2026215;79;20179;-74
2021/05/20 10:53:00;;;;;;;1.71;1.06;;;;;;;16.70;51.71;99877.59;2026386;79;20190;-73
2021/05/20 10:56:29;;;;;;;1.66;1.20;;;;;;;16.60;52.93;99884.72;2027292;79;20208;-73
2021/05/20 10:59:37;;;;;;;2.09;1.44;;;;;;;16.36;52.69;99880.00;2027602;79;20229;-72
2021/05/20 11:02:51;;;;;;;10.29;1.17;;;;;;;16.20;53.36;99875.97;2021150;77;20205;-72
2021/05/20 11:06:00;;;;;;;2.05;1.08;;;;;;;16.11;53.84;99861.25;2021444;80;20167;-72
2021/05/20 11:09:10;;;;;;;2.11;1.00;;;;;;;16.23;53.95;99858.41;2022031;80;20233;-72
2021/05/20 11:12:40;;;;;;;1.16;0.99;;;;;;;16.81;53.54;99853.72;2024609;80;20171;-72
2021/05/20 11:16:13;;;;;;;2.66;1.15;;;;;;;17.54;51.50;99838.84;2021797;77;20792;-73
2021/05/20 11:19:23;;;;;;;2.05;0.96;;;;;;;18.05;48.71;99848.91;2022161;80;20384;-72
2021/05/20 11:22:32;;;;;;;1.50;0.90;;;;;;;17.89;47.78;99834.47;2021478;80;20208;-72
2021/05/20 11:25:35;;;;;;;0.80;0.80;;;;;;;18.35;47.76;99828.78;2020986;80;20212;-71
2021/05/20 11:28:51;;;;;;;1.01;0.90;;;;;;;18.68;46.66;99822.56;2020671;80;20248;-72
2021/05/20 11:32:03;;;;;;;1.04;0.90;;;;;;;19.16;46.55;99829.81;2020877;77;23725;-71
2021/05/20 11:38:24;;;;;;;2.34;1.20;;;;;;;18.80;46.25;99826.56;2021103;80;20275;-71
2021/05/20 11:41:35;;;;;;;2.31;0.81;;;;;;;18.26;45.34;99829.91;2021004;80;20179;-72
2021/05/20 11:44:38;;;;;;;1.38;0.80;;;;;;;18.33;46.22;99823.56;2020703;80;20182;-71
2021/05/20 11:47:55;;;;;;;1.59;0.90;;;;;;;18.57;45.22;99815.84;2019341;77;22115;-71
2021/05/20 11:51:04;;;;;;;1.92;0.70;;;;;;;19.04;43.18;99811.78;2021014;80;20179;-72
2021/05/20 11:54:10;;;;;;;0.80;0.80;;;;;;;19.53;44.84;99815.41;2017733;80;20182;-71
2021/05/20 11:57:25;;;;;;;1.25;0.74;;;;;;;19.47;43.00;99805.09;2021056;80;20812;-72
2021/05/20 12:00:34;;;;;;;1.52;0.70;;;;;;;19.77;41.76;99804.06;2020848;77;23240;-72
2021/05/20 12:03:37;;;;;;;0.90;0.60;;;;;;;19.87;43.71;99801.94;2025951;79;20837;-72
2021/05/20 12:06:50;;;;;;;1.23;0.61;;;;;;;20.15;41.92;99794.78;2026751;79;20657;-72
2021/05/20 12:09:55;;;;;;;1.15;0.68;;;;;;;20.20;38.70;99797.22;2026821;79;20177;-72
2021/05/20 12:13:07;;;;;;;0.50;0.50;;;;;;;20.22;38.34;99803.31;2026441;79;20311;-72
2021/05/20 12:16:25;;;;;;;1.54;0.51;;;;;;;20.23;39.67;99805.88;2023200;77;24976;-72
2021/05/20 12:19:40;;;;;;;0.38;0.37;;;;;;;20.24;40.33;99796.19;2020744;80;20365;-72
2021/05/20 12:22:44;;;;;;;0.71;0.34;;;;;;;20.37;40.20;99791.31;2020302;80;20175;-73
2021/05/20 12:25:55;;;;;;;1.00;0.41;;;;;;;20.57;38.66;99783.53;2020080;80;20186;-71
2021/05/20 12:28:58;;;;;;;2.99;0.28;;;;;;;20.26;37.00;99785.59;2020956;80;20205;-71
2021/05/20 12:32:23;;;;;;;0.51;0.20;;;;;;;19.94;36.72;99802.63;2023548;77;20239;-69
2021/05/20 12:35:45;;;;;;;1.10;0.30;;;;;;;19.64;37.77;99786.97;2026089;79;20206;-71
2021/05/20 12:39:01;;;;;;;1.10;0.30;;;;;;;19.73;38.92;99794.53;2025754;79;20178;-72
2021/05/20 12:42:14;;;;;;;0.75;0.39;;;;;;;19.87;37.96;99797.53;2026827;79;20204;-71
2021/05/20 12:45:31;;;;;;;2.54;0.40;;;;;;;19.68;37.16;99780.66;2024731;77;20174;-72
2021/05/20 12:48:55;;;;;;;1.67;0.40;;;;;;;19.52;38.73;99790.84;2020636;80;20309;-71
2021/05/20 12:51:59;;;;;;;0.20;0.20;;;;;;;19.70;39.20;99784.09;2021090;80;20735;-72
2021/05/20 12:55:08;;;;;;;0.99;0.24;;;;;;;19.85;38.14;99765.13;2020633;80;20293;-72
2021/05/20 12:58:11;;;;;;;3.44;0.40;;;;;;;19.99;36.82;99763.75;2019031;80;20198;-72
2021/05/20 13:01:23;;;;;;;0.91;0.30;;;;;;;20.06;38.85;99750.28;2021842;77;20202;-72
2021/05/20 13:04:32;;;;;;;0.54;0.30;;;;;;;19.99;37.31;99758.50;2026129;79;20239;-72
2021/05/20 13:07:41;;;;;;;0.43;0.30;;;;;;;19.81;36.44;99752.97;2030583;79;20174;-80
2021/05/20 13:10:44;;;;;;;0.86;0.30;;;;;;;19.81;37.99;99750.34;2026646;79;20196;-74
2021/05/20 13:13:53;;;;;;;;;;;;;;;19.95;39.17;99743.72;2027584;79;20549;-76
2021/05/20 13:23:39;;;;;;;0.54;0.22;;;;;;;20.14;38.29;99721.00;2026726;80;20222;-76
2021/05/20 13:26:47;;;;;;;3.85;0.30;;;;;;;20.15;37.63;99723.59;2027367;79;20171;-75
2021/05/20 13:30:02;;;;;;;0.73;0.30;;;;;;;20.04;37.91;99717.00;2025268;79;21106;-75
2021/05/20 13:33:13;;;;;;;1.28;0.30;;;;;;;19.91;38.34;99721.84;2021103;77;20167;-75
2021/05/20 13:36:28;;;;;;;3.16;0.40;;;;;;;19.75;36.35;99704.88;2021035;80;20214;-74
2021/05/20 13:39:37;;;;;;;1.63;0.40;;;;;;;19.57;37.44;99709.06;2021167;80;20174;-77
2021/05/20 13:42:40;;;;;;;0.88;0.40;;;;;;;19.46;37.56;99708.56;2022613;80;20187;-77
2021/05/20 13:45:50;;;;;;;0.56;0.30;;;;;;;19.31;38.48;99702.91;2021716;77;101604;-75
2021/05/20 13:48:59;;;;;;;0.94;0.30;;;;;;;19.37;37.50;99706.22;2026869;79;20229;-73
2021/05/20 13:52:28;;;;;;;1.66;0.30;;;;;;;19.13;37.30;99692.16;2026404;79;20235;-73
2021/05/20 13:55:38;;;;;;;2.10;0.30;;;;;;;19.03;38.70;99686.38;2028060;79;20174;-76
2021/05/20 13:58:41;;;;;;;1.64;0.40;;;;;;;19.26;39.45;99685.56;2027564;79;20263;-77
2021/05/20 14:01:50;;;;;;;1.40;0.30;;;;;;;19.35;37.21;99677.31;2024020;77;20631;-76
2021/05/20 14:04:54;;;;;;;1.75;0.35;;;;;;;19.40;38.66;99662.25;2021958;80;20280;-76
2021/05/20 14:08:03;;;;;;;1.05;0.30;;;;;;;19.48;38.67;99652.28;2021609;80;20208;-76
2021/05/20 14:11:05;;;;;;;1.08;0.30;;;;;;;19.77;39.59;99658.28;2021974;80;20179;-76
2021/05/20 14:14:18;;;;;;;0.80;0.25;;;;;;;19.80;38.94;99640.56;2022617;80;20313;-76
2021/05/20 14:17:21;;;;;;;1.02;0.81;;;;;;;19.74;39.22;99635.50;2025287;77;22009;-76
2021/05/20 14:20:31;;;;;;;0.61;0.36;;;;;;;19.83;39.92;99627.28;2028084;79;20182;-76
2021/05/20 14:23:40;;;;;;;3.39;0.30;;;;;;;19.94;38.34;99626.88;2027403;79;20198;-76
2021/05/20 14:26:43;;;;;;;0.91;0.40;;;;;;;19.57;39.53;99623.00;2027235;79;21100;-77
2021/05/20 14:29:53;;;;;;;1.71;0.32;;;;;;;19.14;38.32;99620.16;2027728;79;20214;-76
2021/05/20 14:33:02;;;;;;;2.05;0.40;;;;;;;18.88;41.43;99608.81;2027142;77;23747;-76
2021/05/20 14:36:18;;;;;;;3.13;0.30;;;;;;;18.83;41.49;99602.81;2027218;79;20436;-76
2021/05/20 14:39:21;;;;;;;1.08;0.30;;;;;;;18.82;39.70;99605.50;2026565;79;20182;-76
2021/05/20 14:42:31;;;;;;;1.29;0.30;;;;;;;18.82;40.15;99606.34;2027304;79;20204;-75
2021/05/20 14:45:39;;;;;;;0.46;0.40;;;;;;;18.62;39.48;99600.88;2025686;77;24350;-76
2021/05/20 14:48:49;;;;;;;1.36;0.30;;;;;;;18.49;40.75;99595.22;2027902;79;20251;-76
2021/05/20 14:51:52;;;;;;;0.49;0.30;;;;;;;18.34;40.90;99588.69;2027917;79;20182;-77
2021/05/20 14:55:07;;;;;;;1.00;0.30;;;;;;;18.16;41.59;99591.03;2027223;79;20175;-76
2021/05/20 15:05:11;;;;;;;0.68;0.36;;;;;;;17.89;40.94;99579.63;2027452;79;20186;-78
2021/05/20 15:08:21;;;;;;;0.76;0.39;;;;;;;17.83;41.61;99572.81;2026805;79;20202;-76